sensor_id;sensor_type;location;lat;lon;timestamp;P1;durP1;ratioP1;P2;durP2;ratioP2
62679;SDS011;68213;40.528;44.712;2023-10-31T00:00:51;42.22;;;9.60;;
62679;SDS011;68213;40.528;44.712;2023-10-31T00:01:52;42.10;;;9.98;;
62679;SDS011;68213;40.528;44.712;2023-10-31T00:02:52;41.42;;;9.65;;
62679;SDS011;68213;40.528;44.712;2023-10-31T00:03:53;34.47;;;9.77;;
62679;SDS011;68213;40.528;44.712;2023-10-31T00:04:53;34.08;;;9.27;;
62679;SDS011;68213;40.528;44.712;2023-10-31T00:05:54;41.40;;;9.82;;
62679;SDS011;68213;40.528;44.712;2023-10-31T00:07:58;44.95;;;11.35;;
62679;SDS011;68213;40.528;44.712;2023-10-31T00:09:01;35.55;;;10.70;;
62679;SDS011;68213;40.528;44.712;2023-10-31T00:10:02;34.72;;;9.30;;
62679;SDS011;68213;40.528;44.712;2023-10-31T00:11:04;34.10;;;9.57;;
62679;SDS011;68213;40.528;44.712;2023-10-31T00:12:05;33.08;;;10.75;;
62679;SDS011;68213;40.528;44.712;2023-10-31T00:13:06;32.88;;;9.18;;
62679;SDS011;68213;40.528;44.712;2023-10-31T00:14:06;29.88;;;8.70;;
62679;SDS011;68213;40.528;44.712;2023-10-31T00:15:08;32.78;;;8.52;;
62679;SDS011;68213;40.528;44.712;2023-10-31T00:16:09;38.00;;;9.50;;
62679;SDS011;68213;40.528;44.712;2023-10-31T00:17:10;36.45;;;9.55;;
62679;SDS011;68213;40.528;44.712;2023-10-31T00:18:10;28.90;;;9.52;;
62679;SDS011;68213;40.528;44.712;2023-10-31T00:19:11;34.22;;;9.02;;
62679;SDS011;68213;40.528;44.712;2023-10-31T00:20:11;26.73;;;8.75;;
62679;SDS011;68213;40.528;44.712;2023-10-31T00:21:12;17.98;;;8.15;;
62679;SDS011;68213;40.528;44.712;2023-10-31T00:22:13;34.17;;;9.20;;
62679;SDS011;68213;40.528;44.712;2023-10-31T00:23:14;30.90;;;9.05;;
62679;SDS011;68213;40.528;44.712;2023-10-31T00:24:15;30.05;;;8.73;;
62679;SDS011;68213;40.528;44.712;2023-10-31T00:25:16;35.95;;;8.98;;
62679;SDS011;68213;40.528;44.712;2023-10-31T00:26:17;24.50;;;8.40;;
62679;SDS011;68213;40.528;44.712;2023-10-31T00:27:18;30.20;;;9.10;;
62679;SDS011;68213;40.528;44.712;2023-10-31T00:28:19;32.00;;;9.15;;
62679;SDS011;68213;40.528;44.712;2023-10-31T00:29:19;35.63;;;9.30;;
62679;SDS011;68213;40.528;44.712;2023-10-31T00:30:20;27.35;;;8.85;;
62679;SDS011;68213;40.528;44.712;2023-10-31T00:31:21;23.25;;;8.43;;
62679;SDS011;68213;40.528;44.712;2023-10-31T00:32:22;34.65;;;9.88;;
62679;SDS011;68213;40.528;44.712;2023-10-31T00:33:23;31.02;;;10.20;;
62679;SDS011;68213;40.528;44.712;2023-10-31T00:34:24;29.40;;;9.55;;
62679;SDS011;68213;40.528;44.712;2023-10-31T00:35:25;33.35;;;9.02;;
62679;SDS011;68213;40.528;44.712;2023-10-31T00:36:26;17.60;;;7.45;;
62679;SDS011;68213;40.528;44.712;2023-10-31T00:37:26;27.13;;;9.10;;
62679;SDS011;68213;40.528;44.712;2023-10-31T00:38:27;29.63;;;9.23;;
62679;SDS011;68213;40.528;44.712;2023-10-31T00:39:28;22.42;;;8.50;;
62679;SDS011;68213;40.528;44.712;2023-10-31T00:40:28;26.98;;;8.93;;
62679;SDS011;68213;40.528;44.712;2023-10-31T00:42:32;23.52;;;8.50;;
62679;SDS011;68213;40.528;44.712;2023-10-31T00:43:33;27.92;;;8.50;;
62679;SDS011;68213;40.528;44.712;2023-10-31T00:44:33;19.48;;;8.25;;
62679;SDS011;68213;40.528;44.712;2023-10-31T00:45:34;21.15;;;8.20;;
62679;SDS011;68213;40.528;44.712;2023-10-31T00:46:34;31.42;;;9.75;;
62679;SDS011;68213;40.528;44.712;2023-10-31T00:47:35;32.92;;;9.38;;
62679;SDS011;68213;40.528;44.712;2023-10-31T00:48:36;33.90;;;9.10;;
62679;SDS011;68213;40.528;44.712;2023-10-31T00:49:37;28.88;;;9.23;;
62679;SDS011;68213;40.528;44.712;2023-10-31T00:50:38;32.75;;;9.88;;
62679;SDS011;68213;40.528;44.712;2023-10-31T00:51:38;26.60;;;8.25;;
62679;SDS011;68213;40.528;44.712;2023-10-31T00:52:39;33.33;;;9.63;;
62679;SDS011;68213;40.528;44.712;2023-10-31T00:53:40;37.40;;;9.38;;
62679;SDS011;68213;40.528;44.712;2023-10-31T00:54:41;34.60;;;10.15;;
62679;SDS011;68213;40.528;44.712;2023-10-31T00:55:42;32.92;;;8.85;;
62679;SDS011;68213;40.528;44.712;2023-10-31T00:56:44;26.33;;;8.75;;
62679;SDS011;68213;40.528;44.712;2023-10-31T00:57:45;23.50;;;8.30;;
62679;SDS011;68213;40.528;44.712;2023-10-31T00:58:46;46.75;;;9.25;;
62679;SDS011;68213;40.528;44.712;2023-10-31T00:59:47;30.70;;;9.05;;
62679;SDS011;68213;40.528;44.712;2023-10-31T01:00:47;44.45;;;10.57;;
62679;SDS011;68213;40.528;44.712;2023-10-31T01:01:48;33.08;;;8.35;;
62679;SDS011;68213;40.528;44.712;2023-10-31T01:02:48;27.85;;;9.45;;
62679;SDS011;68213;40.528;44.712;2023-10-31T01:03:49;25.20;;;9.27;;
62679;SDS011;68213;40.528;44.712;2023-10-31T01:04:50;35.40;;;9.95;;
62679;SDS011;68213;40.528;44.712;2023-10-31T01:05:50;37.38;;;10.27;;
62679;SDS011;68213;40.528;44.712;2023-10-31T01:06:51;38.25;;;9.50;;
62679;SDS011;68213;40.528;44.712;2023-10-31T01:07:52;37.33;;;10.60;;
62679;SDS011;68213;40.528;44.712;2023-10-31T01:08:52;35.88;;;10.07;;
62679;SDS011;68213;40.528;44.712;2023-10-31T01:09:53;34.83;;;8.70;;
62679;SDS011;68213;40.528;44.712;2023-10-31T01:10:53;41.13;;;10.88;;
62679;SDS011;68213;40.528;44.712;2023-10-31T01:11:54;38.33;;;10.15;;
62679;SDS011;68213;40.528;44.712;2023-10-31T01:12:55;30.70;;;9.65;;
62679;SDS011;68213;40.528;44.712;2023-10-31T01:13:55;34.85;;;10.85;;
62679;SDS011;68213;40.528;44.712;2023-10-31T01:14:56;38.67;;;9.75;;
62679;SDS011;68213;40.528;44.712;2023-10-31T01:15:57;38.78;;;10.27;;
62679;SDS011;68213;40.528;44.712;2023-10-31T01:16:57;32.25;;;9.43;;
62679;SDS011;68213;40.528;44.712;2023-10-31T01:17:58;36.38;;;10.52;;
62679;SDS011;68213;40.528;44.712;2023-10-31T01:18:59;27.08;;;9.00;;
62679;SDS011;68213;40.528;44.712;2023-10-31T01:19:59;38.30;;;9.70;;
62679;SDS011;68213;40.528;44.712;2023-10-31T01:21:00;40.20;;;10.48;;
62679;SDS011;68213;40.528;44.712;2023-10-31T01:22:01;58.38;;;11.45;;
62679;SDS011;68213;40.528;44.712;2023-10-31T01:23:01;52.17;;;11.80;;
62679;SDS011;68213;40.528;44.712;2023-10-31T01:24:02;36.40;;;10.63;;
62679;SDS011;68213;40.528;44.712;2023-10-31T01:25:03;46.25;;;10.15;;
62679;SDS011;68213;40.528;44.712;2023-10-31T01:26:04;44.53;;;10.23;;
62679;SDS011;68213;40.528;44.712;2023-10-31T01:27:05;30.33;;;10.95;;
62679;SDS011;68213;40.528;44.712;2023-10-31T01:28:06;38.42;;;10.63;;
62679;SDS011;68213;40.528;44.712;2023-10-31T01:29:06;38.78;;;10.25;;
62679;SDS011;68213;40.528;44.712;2023-10-31T01:30:07;41.85;;;10.38;;
62679;SDS011;68213;40.528;44.712;2023-10-31T01:31:08;57.45;;;11.23;;
62679;SDS011;68213;40.528;44.712;2023-10-31T01:32:09;45.72;;;11.35;;
62679;SDS011;68213;40.528;44.712;2023-10-31T01:33:10;44.45;;;10.45;;
62679;SDS011;68213;40.528;44.712;2023-10-31T01:34:10;36.15;;;9.98;;
62679;SDS011;68213;40.528;44.712;2023-10-31T01:35:11;49.63;;;10.52;;
62679;SDS011;68213;40.528;44.712;2023-10-31T01:36:12;47.60;;;11.07;;
62679;SDS011;68213;40.528;44.712;2023-10-31T01:37:14;47.58;;;11.05;;
62679;SDS011;68213;40.528;44.712;2023-10-31T01:38:15;39.10;;;10.13;;
62679;SDS011;68213;40.528;44.712;2023-10-31T01:39:16;46.13;;;10.82;;
62679;SDS011;68213;40.528;44.712;2023-10-31T01:40:17;29.98;;;9.95;;
62679;SDS011;68213;40.528;44.712;2023-10-31T01:41:17;46.25;;;10.00;;
62679;SDS011;68213;40.528;44.712;2023-10-31T01:42:18;47.88;;;11.05;;
62679;SDS011;68213;40.528;44.712;2023-10-31T01:43:29;45.70;;;10.55;;
62679;SDS011;68213;40.528;44.712;2023-10-31T01:44:33;40.45;;;10.50;;
62679;SDS011;68213;40.528;44.712;2023-10-31T01:45:33;38.38;;;10.45;;
62679;SDS011;68213;40.528;44.712;2023-10-31T01:46:53;39.63;;;9.57;;
62679;SDS011;68213;40.528;44.712;2023-10-31T01:47:53;28.90;;;10.30;;
62679;SDS011;68213;40.528;44.712;2023-10-31T01:48:54;37.90;;;10.27;;
62679;SDS011;68213;40.528;44.712;2023-10-31T01:49:55;44.03;;;10.35;;
62679;SDS011;68213;40.528;44.712;2023-10-31T01:50:56;32.63;;;10.07;;
62679;SDS011;68213;40.528;44.712;2023-10-31T01:52:03;46.60;;;10.75;;
62679;SDS011;68213;40.528;44.712;2023-10-31T01:53:04;30.17;;;10.15;;
62679;SDS011;68213;40.528;44.712;2023-10-31T01:54:05;29.70;;;9.52;;
62679;SDS011;68213;40.528;44.712;2023-10-31T01:55:07;34.80;;;11.18;;
62679;SDS011;68213;40.528;44.712;2023-10-31T01:56:09;32.08;;;10.15;;
62679;SDS011;68213;40.528;44.712;2023-10-31T01:57:10;36.63;;;9.63;;
62679;SDS011;68213;40.528;44.712;2023-10-31T01:58:11;46.03;;;9.93;;
62679;SDS011;68213;40.528;44.712;2023-10-31T01:59:12;33.85;;;10.43;;
62679;SDS011;68213;40.528;44.712;2023-10-31T02:00:15;45.17;;;10.63;;
62679;SDS011;68213;40.528;44.712;2023-10-31T02:01:16;40.80;;;10.23;;
62679;SDS011;68213;40.528;44.712;2023-10-31T02:02:17;30.25;;;10.18;;
62679;SDS011;68213;40.528;44.712;2023-10-31T02:03:20;35.65;;;10.27;;
62679;SDS011;68213;40.528;44.712;2023-10-31T02:04:20;40.97;;;10.40;;
62679;SDS011;68213;40.528;44.712;2023-10-31T02:05:21;36.13;;;9.50;;
62679;SDS011;68213;40.528;44.712;2023-10-31T02:06:22;37.17;;;10.70;;
62679;SDS011;68213;40.528;44.712;2023-10-31T02:07:22;32.60;;;8.85;;
62679;SDS011;68213;40.528;44.712;2023-10-31T02:08:24;37.75;;;10.10;;
62679;SDS011;68213;40.528;44.712;2023-10-31T02:09:27;32.15;;;10.13;;
62679;SDS011;68213;40.528;44.712;2023-10-31T02:10:30;27.80;;;8.77;;
62679;SDS011;68213;40.528;44.712;2023-10-31T02:11:30;24.75;;;9.15;;
62679;SDS011;68213;40.528;44.712;2023-10-31T02:12:34;29.65;;;9.20;;
62679;SDS011;68213;40.528;44.712;2023-10-31T02:13:36;34.42;;;9.80;;
62679;SDS011;68213;40.528;44.712;2023-10-31T02:14:37;25.95;;;8.52;;
62679;SDS011;68213;40.528;44.712;2023-10-31T02:15:38;32.33;;;10.07;;
62679;SDS011;68213;40.528;44.712;2023-10-31T02:16:39;23.83;;;9.13;;
62679;SDS011;68213;40.528;44.712;2023-10-31T02:17:39;26.27;;;9.30;;
62679;SDS011;68213;40.528;44.712;2023-10-31T02:18:40;21.95;;;8.90;;
62679;SDS011;68213;40.528;44.712;2023-10-31T02:19:41;25.55;;;7.82;;
62679;SDS011;68213;40.528;44.712;2023-10-31T02:20:42;24.98;;;8.82;;
62679;SDS011;68213;40.528;44.712;2023-10-31T02:21:44;27.80;;;9.40;;
62679;SDS011;68213;40.528;44.712;2023-10-31T02:22:45;28.38;;;9.07;;
62679;SDS011;68213;40.528;44.712;2023-10-31T02:23:58;24.92;;;8.15;;
62679;SDS011;68213;40.528;44.712;2023-10-31T02:24:59;26.80;;;8.35;;
62679;SDS011;68213;40.528;44.712;2023-10-31T02:26:00;18.08;;;7.82;;
62679;SDS011;68213;40.528;44.712;2023-10-31T02:27:03;29.15;;;9.20;;
62679;SDS011;68213;40.528;44.712;2023-10-31T02:28:04;26.13;;;8.25;;
62679;SDS011;68213;40.528;44.712;2023-10-31T02:29:05;44.85;;;10.13;;
62679;SDS011;68213;40.528;44.712;2023-10-31T02:30:07;24.67;;;9.27;;
62679;SDS011;68213;40.528;44.712;2023-10-31T02:31:08;25.98;;;8.43;;
62679;SDS011;68213;40.528;44.712;2023-10-31T02:32:08;29.38;;;10.43;;
62679;SDS011;68213;40.528;44.712;2023-10-31T02:33:09;23.55;;;8.63;;
62679;SDS011;68213;40.528;44.712;2023-10-31T02:34:10;25.38;;;8.63;;
62679;SDS011;68213;40.528;44.712;2023-10-31T02:35:10;32.13;;;9.15;;
62679;SDS011;68213;40.528;44.712;2023-10-31T02:36:11;23.25;;;9.05;;
62679;SDS011;68213;40.528;44.712;2023-10-31T02:37:12;32.97;;;9.25;;
62679;SDS011;68213;40.528;44.712;2023-10-31T02:38:15;23.73;;;9.20;;
62679;SDS011;68213;40.528;44.712;2023-10-31T02:39:16;30.13;;;10.00;;
62679;SDS011;68213;40.528;44.712;2023-10-31T02:40:16;27.33;;;9.43;;
62679;SDS011;68213;40.528;44.712;2023-10-31T02:41:17;23.45;;;8.35;;
62679;SDS011;68213;40.528;44.712;2023-10-31T02:42:18;22.63;;;8.57;;
62679;SDS011;68213;40.528;44.712;2023-10-31T02:43:18;22.65;;;9.27;;
62679;SDS011;68213;40.528;44.712;2023-10-31T02:44:19;25.10;;;8.75;;
62679;SDS011;68213;40.528;44.712;2023-10-31T02:45:20;21.38;;;8.48;;
62679;SDS011;68213;40.528;44.712;2023-10-31T02:46:20;22.52;;;8.10;;
62679;SDS011;68213;40.528;44.712;2023-10-31T02:47:21;22.00;;;7.68;;
62679;SDS011;68213;40.528;44.712;2023-10-31T02:48:22;17.05;;;7.68;;
62679;SDS011;68213;40.528;44.712;2023-10-31T02:49:25;23.33;;;8.75;;
62679;SDS011;68213;40.528;44.712;2023-10-31T02:50:25;21.90;;;8.75;;
62679;SDS011;68213;40.528;44.712;2023-10-31T02:51:27;28.08;;;8.45;;
62679;SDS011;68213;40.528;44.712;2023-10-31T02:52:28;22.73;;;8.48;;
62679;SDS011;68213;40.528;44.712;2023-10-31T02:53:29;23.80;;;8.05;;
62679;SDS011;68213;40.528;44.712;2023-10-31T02:54:29;20.02;;;8.32;;
62679;SDS011;68213;40.528;44.712;2023-10-31T02:55:30;22.77;;;8.10;;
62679;SDS011;68213;40.528;44.712;2023-10-31T02:56:31;26.10;;;8.75;;
62679;SDS011;68213;40.528;44.712;2023-10-31T02:57:31;24.08;;;8.27;;
62679;SDS011;68213;40.528;44.712;2023-10-31T02:58:32;18.30;;;7.82;;
62679;SDS011;68213;40.528;44.712;2023-10-31T02:59:32;19.42;;;8.13;;
62679;SDS011;68213;40.528;44.712;2023-10-31T03:00:33;17.05;;;8.15;;
62679;SDS011;68213;40.528;44.712;2023-10-31T03:01:34;17.83;;;7.85;;
62679;SDS011;68213;40.528;44.712;2023-10-31T03:02:36;15.50;;;7.78;;
62679;SDS011;68213;40.528;44.712;2023-10-31T03:03:36;20.67;;;8.45;;
62679;SDS011;68213;40.528;44.712;2023-10-31T03:04:37;21.55;;;8.52;;
62679;SDS011;68213;40.528;44.712;2023-10-31T03:05:38;24.98;;;8.93;;
62679;SDS011;68213;40.528;44.712;2023-10-31T03:06:38;26.52;;;8.63;;
62679;SDS011;68213;40.528;44.712;2023-10-31T03:07:39;18.65;;;8.43;;
62679;SDS011;68213;40.528;44.712;2023-10-31T03:08:39;20.17;;;7.85;;
62679;SDS011;68213;40.528;44.712;2023-10-31T03:09:40;23.05;;;8.77;;
62679;SDS011;68213;40.528;44.712;2023-10-31T03:10:41;19.80;;;8.30;;
62679;SDS011;68213;40.528;44.712;2023-10-31T03:11:41;23.52;;;8.75;;
62679;SDS011;68213;40.528;44.712;2023-10-31T03:12:42;19.63;;;8.95;;
62679;SDS011;68213;40.528;44.712;2023-10-31T03:13:43;18.35;;;7.70;;
62679;SDS011;68213;40.528;44.712;2023-10-31T03:14:43;16.90;;;7.60;;
62679;SDS011;68213;40.528;44.712;2023-10-31T03:15:45;16.58;;;8.50;;
62679;SDS011;68213;40.528;44.712;2023-10-31T03:16:46;27.58;;;8.73;;
62679;SDS011;68213;40.528;44.712;2023-10-31T03:17:46;19.85;;;8.10;;
62679;SDS011;68213;40.528;44.712;2023-10-31T03:18:47;15.88;;;7.88;;
62679;SDS011;68213;40.528;44.712;2023-10-31T03:19:48;21.90;;;8.20;;
62679;SDS011;68213;40.528;44.712;2023-10-31T03:20:49;26.15;;;8.40;;
62679;SDS011;68213;40.528;44.712;2023-10-31T03:21:49;25.75;;;8.80;;
62679;SDS011;68213;40.528;44.712;2023-10-31T03:22:50;16.25;;;7.95;;
62679;SDS011;68213;40.528;44.712;2023-10-31T03:23:53;20.88;;;7.25;;
62679;SDS011;68213;40.528;44.712;2023-10-31T03:24:57;17.00;;;7.55;;
62679;SDS011;68213;40.528;44.712;2023-10-31T03:26:00;23.13;;;8.07;;
62679;SDS011;68213;40.528;44.712;2023-10-31T03:27:01;23.00;;;8.00;;
62679;SDS011;68213;40.528;44.712;2023-10-31T03:28:02;15.93;;;7.63;;
62679;SDS011;68213;40.528;44.712;2023-10-31T03:29:02;18.10;;;8.00;;
62679;SDS011;68213;40.528;44.712;2023-10-31T03:30:03;22.02;;;8.57;;
62679;SDS011;68213;40.528;44.712;2023-10-31T03:31:05;20.00;;;8.18;;
62679;SDS011;68213;40.528;44.712;2023-10-31T03:32:06;14.82;;;7.72;;
62679;SDS011;68213;40.528;44.712;2023-10-31T03:33:06;18.58;;;8.73;;
62679;SDS011;68213;40.528;44.712;2023-10-31T03:34:07;18.38;;;7.78;;
62679;SDS011;68213;40.528;44.712;2023-10-31T03:35:08;20.83;;;7.82;;
62679;SDS011;68213;40.528;44.712;2023-10-31T03:36:09;19.10;;;8.18;;
62679;SDS011;68213;40.528;44.712;2023-10-31T03:37:10;17.27;;;7.47;;
62679;SDS011;68213;40.528;44.712;2023-10-31T03:38:10;15.65;;;7.93;;
62679;SDS011;68213;40.528;44.712;2023-10-31T03:39:11;16.98;;;9.07;;
62679;SDS011;68213;40.528;44.712;2023-10-31T03:40:12;15.95;;;7.68;;
62679;SDS011;68213;40.528;44.712;2023-10-31T03:41:12;20.77;;;8.35;;
62679;SDS011;68213;40.528;44.712;2023-10-31T03:42:13;16.38;;;8.00;;
62679;SDS011;68213;40.528;44.712;2023-10-31T03:43:14;16.08;;;7.95;;
62679;SDS011;68213;40.528;44.712;2023-10-31T03:44:14;16.83;;;7.70;;
62679;SDS011;68213;40.528;44.712;2023-10-31T03:45:15;19.52;;;7.22;;
62679;SDS011;68213;40.528;44.712;2023-10-31T03:46:16;20.17;;;7.32;;
62679;SDS011;68213;40.528;44.712;2023-10-31T03:47:16;19.33;;;7.82;;
62679;SDS011;68213;40.528;44.712;2023-10-31T03:48:17;15.98;;;7.75;;
62679;SDS011;68213;40.528;44.712;2023-10-31T03:49:18;24.25;;;8.55;;
62679;SDS011;68213;40.528;44.712;2023-10-31T03:50:19;15.73;;;7.97;;
62679;SDS011;68213;40.528;44.712;2023-10-31T03:51:19;16.88;;;7.93;;
62679;SDS011;68213;40.528;44.712;2023-10-31T03:52:20;18.15;;;7.75;;
62679;SDS011;68213;40.528;44.712;2023-10-31T03:53:21;17.80;;;7.45;;
62679;SDS011;68213;40.528;44.712;2023-10-31T03:54:21;15.93;;;7.63;;
62679;SDS011;68213;40.528;44.712;2023-10-31T03:55:22;16.63;;;7.50;;
62679;SDS011;68213;40.528;44.712;2023-10-31T03:56:22;21.92;;;7.68;;
62679;SDS011;68213;40.528;44.712;2023-10-31T03:57:23;19.58;;;7.93;;
62679;SDS011;68213;40.528;44.712;2023-10-31T03:58:24;22.40;;;7.82;;
62679;SDS011;68213;40.528;44.712;2023-10-31T03:59:24;14.13;;;7.47;;
62679;SDS011;68213;40.528;44.712;2023-10-31T04:00:26;17.40;;;8.48;;
62679;SDS011;68213;40.528;44.712;2023-10-31T04:01:26;16.70;;;7.90;;
62679;SDS011;68213;40.528;44.712;2023-10-31T04:02:27;16.65;;;8.10;;
62679;SDS011;68213;40.528;44.712;2023-10-31T04:03:28;14.60;;;7.45;;
62679;SDS011;68213;40.528;44.712;2023-10-31T04:04:28;15.63;;;7.45;;
62679;SDS011;68213;40.528;44.712;2023-10-31T04:05:29;16.08;;;8.60;;
62679;SDS011;68213;40.528;44.712;2023-10-31T04:06:29;18.85;;;7.65;;
62679;SDS011;68213;40.528;44.712;2023-10-31T04:07:30;23.05;;;8.48;;
62679;SDS011;68213;40.528;44.712;2023-10-31T04:08:31;19.02;;;8.20;;
62679;SDS011;68213;40.528;44.712;2023-10-31T04:09:31;22.08;;;7.97;;
62679;SDS011;68213;40.528;44.712;2023-10-31T04:10:32;26.65;;;7.85;;
62679;SDS011;68213;40.528;44.712;2023-10-31T04:11:33;19.08;;;7.70;;
62679;SDS011;68213;40.528;44.712;2023-10-31T04:12:34;20.23;;;7.32;;
62679;SDS011;68213;40.528;44.712;2023-10-31T04:13:35;20.95;;;7.95;;
62679;SDS011;68213;40.528;44.712;2023-10-31T04:14:37;30.23;;;7.75;;
62679;SDS011;68213;40.528;44.712;2023-10-31T04:15:38;17.70;;;7.60;;
62679;SDS011;68213;40.528;44.712;2023-10-31T04:16:39;13.82;;;7.50;;
62679;SDS011;68213;40.528;44.712;2023-10-31T04:17:45;20.88;;;7.70;;
62679;SDS011;68213;40.528;44.712;2023-10-31T04:18:46;19.38;;;7.43;;
62679;SDS011;68213;40.528;44.712;2023-10-31T04:19:47;19.02;;;7.93;;
62679;SDS011;68213;40.528;44.712;2023-10-31T04:20:47;18.35;;;8.50;;
62679;SDS011;68213;40.528;44.712;2023-10-31T04:21:48;20.98;;;8.95;;
62679;SDS011;68213;40.528;44.712;2023-10-31T04:22:48;21.90;;;8.70;;
62679;SDS011;68213;40.528;44.712;2023-10-31T04:23:49;19.50;;;7.30;;
62679;SDS011;68213;40.528;44.712;2023-10-31T04:24:50;19.05;;;7.90;;
62679;SDS011;68213;40.528;44.712;2023-10-31T04:25:51;21.52;;;8.27;;
62679;SDS011;68213;40.528;44.712;2023-10-31T04:26:52;19.33;;;7.93;;
62679;SDS011;68213;40.528;44.712;2023-10-31T04:27:53;26.83;;;8.70;;
62679;SDS011;68213;40.528;44.712;2023-10-31T04:28:53;22.85;;;7.93;;
62679;SDS011;68213;40.528;44.712;2023-10-31T04:29:54;22.80;;;8.35;;
62679;SDS011;68213;40.528;44.712;2023-10-31T04:30:55;29.38;;;8.40;;
62679;SDS011;68213;40.528;44.712;2023-10-31T04:31:55;30.77;;;8.13;;
62679;SDS011;68213;40.528;44.712;2023-10-31T04:32:58;20.40;;;7.53;;
62679;SDS011;68213;40.528;44.712;2023-10-31T04:33:59;23.83;;;8.52;;
62679;SDS011;68213;40.528;44.712;2023-10-31T04:34:59;21.77;;;7.38;;
62679;SDS011;68213;40.528;44.712;2023-10-31T04:36:00;18.52;;;7.65;;
62679;SDS011;68213;40.528;44.712;2023-10-31T04:37:02;20.98;;;7.65;;
62679;SDS011;68213;40.528;44.712;2023-10-31T04:38:03;24.98;;;8.27;;
62679;SDS011;68213;40.528;44.712;2023-10-31T04:39:03;26.17;;;8.20;;
62679;SDS011;68213;40.528;44.712;2023-10-31T04:40:04;31.63;;;8.30;;
62679;SDS011;68213;40.528;44.712;2023-10-31T04:41:07;27.77;;;8.32;;
62679;SDS011;68213;40.528;44.712;2023-10-31T04:42:08;31.77;;;8.43;;
62679;SDS011;68213;40.528;44.712;2023-10-31T04:43:09;24.52;;;8.27;;
62679;SDS011;68213;40.528;44.712;2023-10-31T04:44:09;23.45;;;8.43;;
62679;SDS011;68213;40.528;44.712;2023-10-31T04:45:10;21.20;;;8.05;;
62679;SDS011;68213;40.528;44.712;2023-10-31T04:46:11;28.52;;;8.57;;
62679;SDS011;68213;40.528;44.712;2023-10-31T04:47:11;18.58;;;8.52;;
62679;SDS011;68213;40.528;44.712;2023-10-31T04:48:13;19.92;;;8.07;;
62679;SDS011;68213;40.528;44.712;2023-10-31T04:49:13;22.45;;;8.20;;
62679;SDS011;68213;40.528;44.712;2023-10-31T04:50:15;20.95;;;8.38;;
62679;SDS011;68213;40.528;44.712;2023-10-31T04:51:16;25.23;;;8.68;;
62679;SDS011;68213;40.528;44.712;2023-10-31T04:52:17;23.90;;;8.60;;
62679;SDS011;68213;40.528;44.712;2023-10-31T04:53:19;29.38;;;8.95;;
62679;SDS011;68213;40.528;44.712;2023-10-31T04:54:20;27.58;;;9.93;;
62679;SDS011;68213;40.528;44.712;2023-10-31T04:55:21;34.33;;;9.93;;
62679;SDS011;68213;40.528;44.712;2023-10-31T04:56:21;49.40;;;9.85;;
62679;SDS011;68213;40.528;44.712;2023-10-31T04:57:22;39.03;;;9.48;;
62679;SDS011;68213;40.528;44.712;2023-10-31T04:58:26;37.75;;;10.18;;
62679;SDS011;68213;40.528;44.712;2023-10-31T04:59:26;27.40;;;9.40;;
62679;SDS011;68213;40.528;44.712;2023-10-31T05:00:27;45.00;;;10.07;;
62679;SDS011;68213;40.528;44.712;2023-10-31T05:01:27;33.22;;;9.90;;
62679;SDS011;68213;40.528;44.712;2023-10-31T05:02:28;44.92;;;10.52;;
62679;SDS011;68213;40.528;44.712;2023-10-31T05:03:29;36.47;;;9.65;;
62679;SDS011;68213;40.528;44.712;2023-10-31T05:04:29;38.25;;;9.63;;
62679;SDS011;68213;40.528;44.712;2023-10-31T05:05:30;37.00;;;9.60;;
62679;SDS011;68213;40.528;44.712;2023-10-31T05:06:31;34.50;;;9.60;;
62679;SDS011;68213;40.528;44.712;2023-10-31T05:07:31;25.85;;;8.57;;
62679;SDS011;68213;40.528;44.712;2023-10-31T05:08:32;23.67;;;8.00;;
62679;SDS011;68213;40.528;44.712;2023-10-31T05:09:33;23.88;;;7.68;;
62679;SDS011;68213;40.528;44.712;2023-10-31T05:10:34;18.77;;;7.22;;
62679;SDS011;68213;40.528;44.712;2023-10-31T05:11:35;19.58;;;7.15;;
62679;SDS011;68213;40.528;44.712;2023-10-31T05:12:36;30.23;;;8.10;;
62679;SDS011;68213;40.528;44.712;2023-10-31T05:13:38;39.78;;;9.57;;
62679;SDS011;68213;40.528;44.712;2023-10-31T05:14:39;33.90;;;9.90;;
62679;SDS011;68213;40.528;44.712;2023-10-31T05:15:40;30.80;;;8.80;;
62679;SDS011;68213;40.528;44.712;2023-10-31T05:16:44;36.97;;;8.77;;
62679;SDS011;68213;40.528;44.712;2023-10-31T05:17:45;46.10;;;9.25;;
62679;SDS011;68213;40.528;44.712;2023-10-31T05:18:45;31.25;;;10.57;;
62679;SDS011;68213;40.528;44.712;2023-10-31T05:19:46;34.65;;;9.45;;
62679;SDS011;68213;40.528;44.712;2023-10-31T05:20:47;36.20;;;9.57;;
62679;SDS011;68213;40.528;44.712;2023-10-31T05:21:47;34.63;;;9.05;;
62679;SDS011;68213;40.528;44.712;2023-10-31T05:22:48;34.10;;;9.70;;
62679;SDS011;68213;40.528;44.712;2023-10-31T05:23:49;38.20;;;9.10;;
62679;SDS011;68213;40.528;44.712;2023-10-31T05:24:50;40.95;;;9.60;;
62679;SDS011;68213;40.528;44.712;2023-10-31T05:25:51;29.75;;;9.20;;
62679;SDS011;68213;40.528;44.712;2023-10-31T05:26:52;28.05;;;9.82;;
62679;SDS011;68213;40.528;44.712;2023-10-31T05:27:52;27.67;;;8.07;;
62679;SDS011;68213;40.528;44.712;2023-10-31T05:28:53;30.15;;;8.60;;
62679;SDS011;68213;40.528;44.712;2023-10-31T05:29:54;28.02;;;8.98;;
62679;SDS011;68213;40.528;44.712;2023-10-31T05:30:54;22.48;;;8.32;;
62679;SDS011;68213;40.528;44.712;2023-10-31T05:31:55;21.42;;;8.45;;
62679;SDS011;68213;40.528;44.712;2023-10-31T05:32:56;28.75;;;7.82;;
62679;SDS011;68213;40.528;44.712;2023-10-31T05:33:56;22.23;;;8.20;;
62679;SDS011;68213;40.528;44.712;2023-10-31T05:34:57;21.85;;;7.25;;
62679;SDS011;68213;40.528;44.712;2023-10-31T05:35:58;27.27;;;7.53;;
62679;SDS011;68213;40.528;44.712;2023-10-31T05:36:58;26.73;;;8.45;;
62679;SDS011;68213;40.528;44.712;2023-10-31T05:37:59;26.50;;;7.85;;
62679;SDS011;68213;40.528;44.712;2023-10-31T05:39:00;26.45;;;7.85;;
62679;SDS011;68213;40.528;44.712;2023-10-31T05:40:01;28.60;;;8.38;;
62679;SDS011;68213;40.528;44.712;2023-10-31T05:41:03;25.48;;;8.18;;
62679;SDS011;68213;40.528;44.712;2023-10-31T05:42:03;28.00;;;8.38;;
62679;SDS011;68213;40.528;44.712;2023-10-31T05:43:04;24.45;;;8.65;;
62679;SDS011;68213;40.528;44.712;2023-10-31T05:44:05;31.55;;;7.95;;
62679;SDS011;68213;40.528;44.712;2023-10-31T05:45:06;22.20;;;8.05;;
62679;SDS011;68213;40.528;44.712;2023-10-31T05:46:07;23.85;;;8.00;;
62679;SDS011;68213;40.528;44.712;2023-10-31T05:47:11;27.05;;;7.63;;
62679;SDS011;68213;40.528;44.712;2023-10-31T05:48:11;21.10;;;7.30;;
62679;SDS011;68213;40.528;44.712;2023-10-31T05:49:14;21.48;;;7.85;;
62679;SDS011;68213;40.528;44.712;2023-10-31T05:50:16;23.27;;;8.48;;
62679;SDS011;68213;40.528;44.712;2023-10-31T05:51:17;29.60;;;8.15;;
62679;SDS011;68213;40.528;44.712;2023-10-31T05:52:19;22.35;;;7.63;;
62679;SDS011;68213;40.528;44.712;2023-10-31T05:53:19;25.73;;;7.50;;
62679;SDS011;68213;40.528;44.712;2023-10-31T05:54:20;29.05;;;7.70;;
62679;SDS011;68213;40.528;44.712;2023-10-31T05:55:21;22.92;;;8.13;;
62679;SDS011;68213;40.528;44.712;2023-10-31T05:56:21;29.83;;;8.13;;
62679;SDS011;68213;40.528;44.712;2023-10-31T05:57:22;28.30;;;8.25;;
62679;SDS011;68213;40.528;44.712;2023-10-31T05:58:23;24.33;;;8.38;;